Time,TemperatureF,DewpointF,PressureIn,WindDirection,WindDirectionDegrees,WindSpeedMPH,WindSpeedGustMPH,Humidity,HourlyPrecipIn,Conditions,Clouds,dailyrainin,SoftwareType,DateUTC
2013-05-29 00:04:00,55.7,47.0,30.14,South,182,1.0,-999.0,72,-99.99,,,0.00,weatherlink.com 1.10,2013-05-29 04:04:00,
2013-05-29 00:19:00,56.2,47.0,30.15,South,182,0.0,-999.0,71,-99.99,,,0.00,weatherlink.com 1.10,2013-05-29 04:19:00,
2013-05-29 00:34:00,55.7,48.0,30.14,South,182,0.0,-999.0,74,-99.99,,,0.00,weatherlink.com 1.10,2013-05-29 04:34:00,
2013-05-29 00:49:00,55.3,47.0,30.14,South,182,0.0,-999.0,74,-99.99,,,0.00,weatherlink.com 1.10,2013-05-29 04:49:00,
2013-05-29 01:04:00,55.3,47.0,30.14,South,182,2.0,-999.0,74,-99.99,,,0.00,weatherlink.com 1.10,2013-05-29 05:04:00,
2013-05-29 01:19:00,55.5,47.0,30.13,South,182,0.0,-999.0,74,-99.99,,,0.00,weatherlink.com 1.10,2013-05-29 05:19:00,
2013-05-29 01:34:00,55.5,47.0,30.12,South,182,2.0,-999.0,73,-99.99,,,0.00,weatherlink.com 1.10,2013-05-29 05:34:00,
2013-05-29 01:49:00,55.2,47.0,30.12,South,182,0.0,-999.0,74,-99.99,,,0.00,weatherlink.com 1.10,2013-05-29 05:49:00,
2013-05-29 02:05:00,55.2,47.0,30.12,SSW,194,5.0,-999.0,74,-99.99,,,0.00,weatherlink.com 1.10,2013-05-29 06:05:00,
2013-05-29 02:20:00,55.1,47.0,30.11,SSW,193,1.0,-999.0,75,-99.99,,,0.00,weatherlink.com 1.10,2013-05-29 06:20:00,
2013-05-29 02:35:00,55.1,47.0,30.11,South,186,1.0,-999.0,74,-99.99,,,0.00,weatherlink.com 1.10,2013-05-29 06:35:00,
2013-05-29 02:50:00,55.4,47.0,30.10,SSW,192,5.0,-999.0,73,-99.99,,,0.00,weatherlink.com 1.10,2013-05-29 06:50:00,
2013-05-29 03:05:00,55.1,48.0,30.09,South,174,2.0,-999.0,76,-99.99,,,0.00,weatherlink.com 1.10,2013-05-29 07:05:00,
2013-05-29 03:20:00,54.7,48.0,30.09,SSW,198,0.0,-999.0,78,-99.99,,,0.00,weatherlink.com 1.10,2013-05-29 07:20:00,
2013-05-29 03:35:00,54.4,49.0,30.09,South,184,0.0,-999.0,82,-99.99,,,0.00,weatherlink.com 1.10,2013-05-29 07:35:00,
2013-05-29 03:50:00,53.9,50.0,30.09,South,185,0.0,-999.0,85,-99.99,,,0.00,weatherlink.com 1.10,2013-05-29 07:50:00,
2013-05-29 04:05:00,53.4,50.0,30.09,South,185,0.0,-999.0,88,-99.99,,,0.01,weatherlink.com 1.10,2013-05-29 08:05:00,
2013-05-29 04:20:00,53.4,50.0,30.09,SSW,195,5.0,-999.0,88,-99.99,,,0.01,weatherlink.com 1.10,2013-05-29 08:20:00,
2013-05-29 04:35:00,53.2,50.0,30.09,South,191,0.0,-999.0,87,-99.99,,,0.01,weatherlink.com 1.10,2013-05-29 08:35:00,
2013-05-29 04:50:00,53.1,49.0,30.09,South,190,0.0,-999.0,87,-99.99,,,0.01,weatherlink.com 1.10,2013-05-29 08:50:00,
2013-05-29 05:05:00,52.9,49.0,30.09,SW,223,0.0,-999.0,87,-99.99,,,0.01,weatherlink.com 1.10,2013-05-29 09:05:00,
2013-05-29 05:20:00,52.9,50.0,30.09,SSW,197,4.0,-999.0,88,-99.99,,,0.01,weatherlink.com 1.10,2013-05-29 09:20:00,
2013-05-29 05:35:00,52.7,49.0,30.10,SSW,197,2.0,-999.0,88,-99.99,,,0.01,weatherlink.com 1.10,2013-05-29 09:35:00,
2013-05-29 05:50:00,52.6,50.0,30.10,SSW,203,0.0,-999.0,89,-99.99,,,0.01,weatherlink.com 1.10,2013-05-29 09:50:00,
2013-05-29 06:05:00,52.5,50.0,30.10,South,191,2.0,-999.0,90,-99.99,,,0.01,weatherlink.com 1.10,2013-05-29 10:05:00,
2013-05-29 06:20:00,52.3,50.0,30.10,SSW,205,3.0,-999.0,90,-99.99,,,0.02,weatherlink.com 1.10,2013-05-29 10:20:00,
2013-05-29 06:35:00,52.1,50.0,30.10,SSW,212,0.0,-999.0,91,-99.99,,,0.03,weatherlink.com 1.10,2013-05-29 10:35:00,
2013-05-29 06:51:00,51.9,50.0,30.09,South,191,0.0,-999.0,92,-99.99,,,0.04,weatherlink.com 1.10,2013-05-29 10:51:00,
2013-05-29 07:05:00,51.9,50.0,30.09,SW,231,0.0,-999.0,93,-99.99,,,0.04,weatherlink.com 1.10,2013-05-29 11:05:00,
2013-05-29 07:20:00,52.0,50.0,30.09,South,182,0.0,-999.0,94,-99.99,,,0.04,weatherlink.com 1.10,2013-05-29 11:20:00,
2013-05-29 07:35:00,52.1,51.0,30.09,SSW,199,0.0,-999.0,94,-99.99,,,0.04,weatherlink.com 1.10,2013-05-29 11:35:00,
2013-05-29 07:50:00,52.2,51.0,30.10,South,178,0.0,-999.0,94,-99.99,,,0.04,weatherlink.com 1.10,2013-05-29 11:50:00,
2013-05-29 08:05:00,52.2,51.0,30.09,South,186,4.0,-999.0,94,-99.99,,,0.04,weatherlink.com 1.10,2013-05-29 12:05:00,
2013-05-29 08:20:00,52.4,51.0,30.08,SSW,197,1.0,-999.0,95,-99.99,,,0.05,weatherlink.com 1.10,2013-05-29 12:20:00,
2013-05-29 08:35:00,52.9,52.0,30.09,SSE,160,0.0,-999.0,95,-99.99,,,0.05,weatherlink.com 1.10,2013-05-29 12:35:00,
2013-05-29 08:50:00,53.0,52.0,30.08,SSE,168,0.0,-999.0,95,-99.99,,,0.05,weatherlink.com 1.10,2013-05-29 12:50:00,
2013-05-29 09:05:00,53.2,52.0,30.08,South,170,2.0,-999.0,95,-99.99,,,0.05,weatherlink.com 1.10,2013-05-29 13:05:00,
2013-05-29 09:20:00,53.3,52.0,30.08,South,188,4.0,-999.0,95,-99.99,,,0.06,weatherlink.com 1.10,2013-05-29 13:20:00,
2013-05-29 09:35:00,53.5,52.0,30.07,South,185,5.0,-999.0,95,-99.99,,,0.07,weatherlink.com 1.10,2013-05-29 13:35:00,
2013-05-29 09:50:00,53.8,52.0,30.07,South,190,5.0,-999.0,95,-99.99,,,0.09,weatherlink.com 1.10,2013-05-29 13:50:00,
2013-05-29 10:05:00,54.1,53.0,30.07,South,179,5.0,-999.0,95,-99.99,,,0.09,weatherlink.com 1.10,2013-05-29 14:05:00,
2013-05-29 10:20:00,54.3,53.0,30.06,South,190,2.0,-999.0,95,-99.99,,,0.10,weatherlink.com 1.10,2013-05-29 14:20:00,
2013-05-29 10:35:00,54.7,54.0,30.05,South,183,0.0,-999.0,96,-99.99,,,0.11,weatherlink.com 1.10,2013-05-29 14:35:00,
2013-05-29 10:50:00,55.1,54.0,30.04,SSE,165,0.0,-999.0,95,-99.99,,,0.11,weatherlink.com 1.10,2013-05-29 14:50:00,
2013-05-29 11:06:00,55.2,54.0,30.03,South,185,2.0,-999.0,96,-99.99,,,0.11,weatherlink.com 1.10,2013-05-29 15:06:00,
2013-05-29 11:21:00,55.9,55.0,30.04,South,181,4.0,-999.0,96,-99.99,,,0.11,weatherlink.com 1.10,2013-05-29 15:21:00,
2013-05-29 11:36:00,56.4,55.0,30.05,SE,141,0.0,-999.0,95,-99.99,,,0.11,weatherlink.com 1.10,2013-05-29 15:36:00,
2013-05-29 11:51:00,56.8,56.0,30.05,SSE,155,0.0,-999.0,96,-99.99,,,0.11,weatherlink.com 1.10,2013-05-29 15:51:00,
2013-05-29 12:06:00,56.6,55.0,30.05,SSE,168,5.0,-999.0,95,-99.99,,,0.11,weatherlink.com 1.10,2013-05-29 16:06:00,
2013-05-29 12:21:00,56.6,55.0,30.05,SSE,168,0.0,-999.0,95,-99.99,,,0.11,weatherlink.com 1.10,2013-05-29 16:21:00,
2013-05-29 12:36:00,56.8,55.0,30.04,South,184,0.0,-999.0,95,-99.99,,,0.11,weatherlink.com 1.10,2013-05-29 16:36:00,
2013-05-29 12:51:00,57.1,56.0,30.04,SSE,164,0.0,-999.0,95,-99.99,,,0.11,weatherlink.com 1.10,2013-05-29 16:51:00,
2013-05-29 13:06:00,57.2,56.0,30.04,South,173,2.0,-999.0,95,-99.99,,,0.11,weatherlink.com 1.10,2013-05-29 17:06:00,
2013-05-29 13:21:00,57.3,56.0,30.04,South,189,0.0,-999.0,95,-99.99,,,0.11,weatherlink.com 1.10,2013-05-29 17:21:00,
2013-05-29 13:36:00,57.5,56.0,30.04,South,188,0.0,-999.0,95,-99.99,,,0.11,weatherlink.com 1.10,2013-05-29 17:36:00,
2013-05-29 13:51:00,57.9,57.0,30.04,SSE,166,1.0,-999.0,95,-99.99,,,0.12,weatherlink.com 1.10,2013-05-29 17:51:00,
2013-05-29 14:06:00,58.2,57.0,30.03,South,182,2.0,-999.0,95,-99.99,,,0.12,weatherlink.com 1.10,2013-05-29 18:06:00,
2013-05-29 14:21:00,58.2,57.0,30.03,SSE,166,2.0,-999.0,95,-99.99,,,0.12,weatherlink.com 1.10,2013-05-29 18:21:00,
2013-05-29 14:36:00,58.3,57.0,30.03,SSE,159,4.0,-999.0,96,-99.99,,,0.12,weatherlink.com 1.10,2013-05-29 18:36:00,
2013-05-29 14:51:00,58.6,57.0,30.03,South,182,2.0,-999.0,95,-99.99,,,0.12,weatherlink.com 1.10,2013-05-29 18:51:00,
2013-05-29 15:06:00,58.5,57.0,30.03,South,179,0.0,-999.0,95,-99.99,,,0.12,weatherlink.com 1.10,2013-05-29 19:06:00,
2013-05-29 15:21:00,58.7,57.0,30.03,SE,144,1.0,-999.0,95,-99.99,,,0.12,weatherlink.com 1.10,2013-05-29 19:21:00,
2013-05-29 15:36:00,58.9,58.0,30.03,SSE,157,0.0,-999.0,95,-99.99,,,0.12,weatherlink.com 1.10,2013-05-29 19:36:00,
2013-05-29 15:51:00,58.8,57.0,30.03,South,172,5.0,-999.0,95,-99.99,,,0.12,weatherlink.com 1.10,2013-05-29 19:51:00,
2013-05-29 16:06:00,59.0,58.0,30.02,SSE,157,4.0,-999.0,96,-99.99,,,0.12,weatherlink.com 1.10,2013-05-29 20:06:00,
2013-05-29 16:21:00,58.9,58.0,30.02,SSW,197,0.0,-999.0,96,-99.99,,,0.12,weatherlink.com 1.10,2013-05-29 20:21:00,
2013-05-29 16:36:00,58.9,58.0,30.02,South,187,4.0,-999.0,96,-99.99,,,0.12,weatherlink.com 1.10,2013-05-29 20:36:00,
2013-05-29 16:51:00,59.0,58.0,30.01,South,187,1.0,-999.0,96,-99.99,,,0.12,weatherlink.com 1.10,2013-05-29 20:51:00,
2013-05-29 17:06:00,59.1,58.0,30.01,South,187,0.0,-999.0,96,-99.99,,,0.12,weatherlink.com 1.10,2013-05-29 21:06:00,
2013-05-29 17:21:00,59.0,58.0,30.01,SSE,155,0.0,-999.0,96,-99.99,,,0.12,weatherlink.com 1.10,2013-05-29 21:21:00,
2013-05-29 17:36:00,59.3,58.0,30.00,SSW,203,3.0,-999.0,96,-99.99,,,0.12,weatherlink.com 1.10,2013-05-29 21:36:00,
2013-05-29 17:51:00,59.8,59.0,30.00,South,177,4.0,-999.0,96,-99.99,,,0.12,weatherlink.com 1.10,2013-05-29 21:51:00,
2013-05-29 18:06:00,60.1,59.0,29.99,South,178,4.0,-999.0,96,-99.99,,,0.12,weatherlink.com 1.10,2013-05-29 22:06:00,
2013-05-29 18:21:00,60.2,59.0,29.99,SSE,161,4.0,-999.0,96,-99.99,,,0.12,weatherlink.com 1.10,2013-05-29 22:21:00,
2013-05-29 18:36:00,60.3,59.0,29.98,South,176,0.0,-999.0,96,-99.99,,,0.12,weatherlink.com 1.10,2013-05-29 22:36:00,
2013-05-29 18:51:00,60.4,59.0,29.99,South,169,5.0,-999.0,96,-99.99,,,0.12,weatherlink.com 1.10,2013-05-29 22:51:00,
2013-05-29 19:06:00,60.3,59.0,30.00,SSW,197,4.0,-999.0,96,-99.99,,,0.12,weatherlink.com 1.10,2013-05-29 23:06:00,
2013-05-29 19:21:00,60.2,59.0,30.00,SSW,195,2.0,-999.0,96,-99.99,,,0.12,weatherlink.com 1.10,2013-05-29 23:21:00,
2013-05-29 19:36:00,60.1,59.0,29.99,South,170,0.0,-999.0,96,-99.99,,,0.12,weatherlink.com 1.10,2013-05-29 23:36:00,
2013-05-29 20:06:00,60.0,59.0,29.99,South,174,2.0,-999.0,96,-99.99,,,0.12,weatherlink.com 1.10,2013-05-30 00:06:00,
2013-05-29 20:21:00,59.9,59.0,29.97,South,178,7.0,-999.0,96,-99.99,,,0.12,weatherlink.com 1.10,2013-05-30 00:21:00,
2013-05-29 20:36:00,59.8,59.0,29.98,South,189,5.0,-999.0,96,-99.99,,,0.12,weatherlink.com 1.10,2013-05-30 00:36:00,
2013-05-29 20:51:00,59.7,59.0,29.98,South,182,5.0,-999.0,96,-99.99,,,0.13,weatherlink.com 1.10,2013-05-30 00:51:00,
2013-05-29 21:06:00,59.6,59.0,29.98,SSW,192,0.0,-999.0,96,-99.99,,,0.13,weatherlink.com 1.10,2013-05-30 01:06:00,
2013-05-29 21:21:00,59.6,59.0,29.97,South,191,0.0,-999.0,96,-99.99,,,0.13,weatherlink.com 1.10,2013-05-30 01:21:00,
2013-05-29 21:36:00,59.6,59.0,29.98,South,191,0.0,-999.0,96,-99.99,,,0.13,weatherlink.com 1.10,2013-05-30 01:36:00,
2013-05-29 21:51:00,59.7,59.0,29.98,SSW,192,0.0,-999.0,96,-99.99,,,0.13,weatherlink.com 1.10,2013-05-30 01:51:00,
2013-05-29 22:06:00,59.6,59.0,29.98,SSW,193,0.0,-999.0,96,-99.99,,,0.13,weatherlink.com 1.10,2013-05-30 02:06:00,
2013-05-29 22:21:00,59.8,59.0,29.98,SSW,193,1.0,-999.0,96,-99.99,,,0.13,weatherlink.com 1.10,2013-05-30 02:21:00,
2013-05-29 22:36:00,59.8,59.0,29.98,SSW,193,0.0,-999.0,96,-99.99,,,0.13,weatherlink.com 1.10,2013-05-30 02:36:00,
2013-05-29 22:51:00,59.9,59.0,29.98,SSW,193,0.0,-999.0,97,-99.99,,,0.13,weatherlink.com 1.10,2013-05-30 02:51:00,
2013-05-29 23:06:00,60.0,59.0,29.99,SSW,193,0.0,-999.0,97,-99.99,,,0.13,weatherlink.com 1.10,2013-05-30 03:06:00,
2013-05-29 23:21:00,60.1,59.0,30.00,SSW,193,0.0,-999.0,97,-99.99,,,0.13,weatherlink.com 1.10,2013-05-30 03:21:00,
2013-05-29 23:36:00,60.0,59.0,30.00,SSW,193,1.0,-999.0,97,-99.99,,,0.13,weatherlink.com 1.10,2013-05-30 03:36:00,
2013-05-29 23:51:00,60.0,59.0,29.99,SSW,193,0.0,-999.0,97,-99.99,,,0.13,weatherlink.com 1.10,2013-05-30 03:51:00,